Terminal Aerodrome Forecast
Issued by NWS

Current Version | Previous Version | Text Only | Print | Product List | Glossary On
Versions: 1 2 3 4 5 6 7 8 9 10 11 12 13 14 15 16 17 18 19 20 21
000
FTUS43 KILX 221500 AAA
TAFBMI
TAF AMD
KBMI 221544Z 2216/2312 20008KT 3SM -RA BR VCTS BKN035CB
     FM221800 20008KT P6SM SCT035 BKN120
     FM222300 24010KT P6SM SCT035 BKN250
     FM230500 25005KT P6SM VCSH BKN150=

USA.gov is the U.S. government's official web portal to all federal, state and local government web resources and services.